FW2208 Weather Reports


time (UTC)temp
C
wind
direction
speed
KPH
gust
KPH
rain 1hr
cm
rain 24hr
cm
rain mn
cm
humidity
%
barometer
mb
20200229101018 11 0.0 1.6 0.00 0.00 0.00 82 1019.8
20200229100016 11 0.0 1.6 0.00 0.00 0.00 82 1019.6
20200229095015 11 0.0 0.0 0.00 0.00 0.00 80 1019.5
20200229094015 12 180 1.6 3.2 0.00 0.00 0.00 79 1019.7
20200229093015 12 180 1.6 3.2 0.00 0.00 0.00 79 1019.7
20200229092015 12 180 3.2 4.8 0.00 0.00 0.00 79 1019.9
20200229091015 12 180 1.6 3.2 0.00 0.00 0.00 79 1020.1
20200229090017 12 0.0 0.0 0.00 0.00 0.00 80 1020.3
20200229085017 12 0.0 0.0 0.00 0.00 0.00 81 1020.4
20200229084019 12 0.0 0.0 0.00 0.00 0.00 81 1020.6
20200229083017 12 0.0 0.0 0.00 0.00 0.00 81 1020.7
20200229082019 12 0.0 0.0 0.00 0.00 0.00 81 1021.0
20200229081017 12 0.0 0.0 0.00 0.00 0.00 81 1020.9
20200229080017 12 0.0 0.0 0.00 0.00 0.00 81 1021.0
20200229075017 12 0.0 1.6 0.00 0.00 0.00 81 1021.2
20200229074017 12 0.0 1.6 0.00 0.00 0.00 81 1021.5
20200229073017 12 0.0 1.6 0.00 0.00 0.00 81 1021.6
20200229072017 11 0.0 0.0 0.00 0.00 0.00 82 1021.7
20200229071017 11 0.0 0.0 0.00 0.00 0.00 81 1022.0
20200229070018 11 0.0 0.0 0.00 0.00 0.00 82 1022.0
20200229065016 11 0.0 0.0 0.00 0.00 0.00 82 1022.0
20200229064016 11 0.0 1.6 0.00 0.00 0.00 83 1022.1
20200229063016 10 180 3.2 4.8 0.00 0.00 0.00 83 1021.8
20200229062016 10 0.0 1.6 0.00 0.00 0.00 82 1022.2
20200229061016 10 0.0 0.0 0.00 0.00 0.00 81 1022.1
20200229060016 10 180 1.6 3.2 0.00 0.00 0.00 80 1022.0
20200229055016 10 0.0 0.0 0.00 0.00 0.00 82 1022.1
20200229054015 10 0.0 0.0 0.00 0.00 0.00 82 1022.1
20200229053016 10 0.0 0.0 0.00 0.00 0.00 80 1022.1
20200229052016 10 180 1.6 3.2 0.00 0.00 0.00 79 1022.1
20200229051016 11 180 1.6 1.6 0.00 0.00 0.00 79 1022.1
20200229050016 11 0.0 0.0 0.00 0.00 0.00 79 1022.0
20200229045016 11 0.0 1.6 0.00 0.00 0.00 78 1021.6
20200229044016 11 0.0 1.6 0.00 0.00 0.00 78 1021.6
20200229043016 11 180 1.6 3.2 0.00 0.00 0.00 77 1021.5
20200229042015 12 180 1.6 3.2 0.00 0.00 0.00 75 1021.7
20200229041015 12 0.0 1.6 0.00 0.00 0.00 74 1021.7
20200229040015 12 180 1.6 3.2 0.00 0.00 0.00 73 1021.7
20200229035016 13 180 1.6 3.2 0.00 0.00 0.00 71 1021.9
20200229034020 13 225 1.6 6.4 0.00 0.00 0.00 70 1021.7
20200229033015 13 0.0 0.0 0.00 0.00 0.00 69 1021.7
20200229032016 14 225 3.2 4.8 0.00 0.00 0.00 68 1021.8
20200229031015 15 225 1.6 3.2 0.00 0.00 0.00 67 1021.4
20200229030015 15 0.0 1.6 0.00 0.00 0.00 66 1021.6
20200229025015 16 225 1.6 1.6 0.00 0.00 0.00 65 1021.5
20200229024016 16 0.0 0.0 0.00 0.00 0.00 63 1021.4
20200229023016 17 0.0 0.0 0.00 0.00 0.00 61 1021.4
20200229022015 17 0.0 0.0 0.00 0.00 0.00 60 1021.2
20200229021015 18 225 1.6 3.2 0.00 0.00 0.00 58 1020.9
20200229020015 18 225 1.6 3.2 0.00 0.00 0.00 57 1020.8
20200229015015 19 225 1.6 3.2 0.00 0.00 0.00 56 1020.9
20200229014017 19 225 1.6 1.6 0.00 0.00 0.00 54 1020.9
20200229013017 20 225 1.6 3.2 0.00 0.00 0.00 52 1020.9
20200229012017 20 225 1.6 3.2 0.00 0.00 0.00 51 1020.9
20200229011017 20 225 3.2 4.8 0.00 0.00 0.00 51 1021.4
20200229010018 21 225 1.6 3.2 0.00 0.00 0.00 50 1021.3
20200229005017 21 225 3.2 4.8 0.00 0.00 0.00 49 1021.2
20200229004017 22 225 3.2 4.8 0.00 0.00 0.00 48 1021.2
20200229003017 22 225 3.2 4.8 0.00 0.00 0.00 50 1021.3
20200229002017 23 0.0 1.6 0.00 0.00 0.00 51 1021.2
20200229001017 23 225 1.6 4.8 0.00 0.00 0.00 47 1021.1
20200229000017 23 225 3.2 6.4 0.00 0.00 0.00 44 1021.4
20200228235018 23 225 3.2 8.0 0.00 0.00 0.00 43 1021.4
20200228234017 23 247 1.6 4.8 0.00 0.00 0.00 46 1021.5
20200228233015 23 247 3.2 6.4 0.00 0.00 0.00 44 1021.5
20200228232017 23 247 4.8 9.7 0.00 0.00 0.00 42 1021.5
20200228231017 23 247 4.8 8.0 0.00 0.00 0.00 43 1021.6
20200228230017 24 247 3.2 6.4 0.00 0.00 0.00 44 1021.5
20200228225017 24 247 4.8 11.3 0.00 0.00 0.00 42 1021.4
20200228224017 25 247 4.8 11.3 0.00 0.00 0.00 40 1021.4
20200228223017 25 247 6.4 12.9 0.00 0.00 0.00 40 1021.3
20200228222017 25 247 8.0 14.5 0.00 0.00 0.00 40 1021.5
20200228221017 25 247 9.7 14.5 0.00 0.00 0.00 40 1021.7
20200228220017 25 247 9.7 16.1 0.00 0.00 0.00 41 1021.6
20200228215017 25 247 9.7 16.1 0.00 0.00 0.00 40 1021.5
20200228214017 26 247 9.7 17.7 0.00 0.00 0.00 35 1021.4
20200228213017 26 247 6.4 12.9 0.00 0.00 0.00 34 1021.5
20200228212016 26 270 8.0 14.5 0.00 0.00 0.00 36 1021.4
20200228211017 27 247 8.0 14.5 0.00 0.00 0.00 32 1021.6
20200228210017 27 270 4.8 9.7 0.00 0.00 0.00 27 1021.5
20200228205016 27 270 4.8 9.7 0.00 0.00 0.00 26 1021.4
20200228204016 27 270 4.8 9.7 0.00 0.00 0.00 25 1021.3
20200228203017 27 270 3.2 9.7 0.00 0.00 0.00 23 1021.2
20200228202017 27 270 3.2 6.4 0.00 0.00 0.00 25 1021.2
20200228201017 27 247 1.6 6.4 0.00 0.00 0.00 22 1021.5
20200228200018 27 270 1.6 4.8 0.00 0.00 0.00 22 1021.6
20200228195017 27 247 1.6 4.8 0.00 0.00 0.00 23 1021.8
20200228194017 27 247 3.2 9.7 0.00 0.00 0.00 26 1022.2
20200228193017 26 247 1.6 6.4 0.00 0.00 0.00 24 1022.3
20200228192017 26 247 3.2 4.8 0.00 0.00 0.00 24 1022.4
20200228191017 26 247 1.6 6.4 0.00 0.00 0.00 24 1022.5
20200228190017 25 202 1.6 6.4 0.00 0.00 0.00 23 1022.9
20200228185016 25 67 1.6 6.4 0.00 0.00 0.00 28 1023.0
20200228184016 25 67 1.6 4.8 0.00 0.00 0.00 26 1023.0
20200228183017 24 45 1.6 6.4 0.00 0.00 0.00 25 1023.1
20200228182016 24 0 1.6 8.0 0.00 0.00 0.00 25 1023.1
20200228181017 23 22 1.6 3.2 0.00 0.00 0.00 30 1023.0
20200228180016 23 22 1.6 3.2 0.00 0.00 0.00 34 1023.0
20200228175016 22 0.0 3.2 0.00 0.00 0.00 39 1023.2
20200228174017 22 22 1.6 3.2 0.00 0.00 0.00 41 1023.4
20200228173016 21 0 3.2 6.4 0.00 0.00 0.00 42 1023.0
20200228172016 21 0 3.2 6.4 0.00 0.00 0.00 41 1023.3
20200228171016 20 0 3.2 6.4 0.00 0.00 0.00 42 1023.4
20200228170016 20 0 6.4 14.5 0.00 0.00 0.00 42 1023.5
20200228165016 19 0 4.8 8.0 0.00 0.00 0.00 49 1023.5
20200228164016 18 45 3.2 6.4 0.00 0.00 0.00 56 1023.5
20200228163017 17 45 3.2 6.4 0.00 0.00 0.00 57 1023.4
20200228162022 16 45 3.2 6.4 0.00 0.00 0.00 58 1023.4
20200228161016 15 45 3.2 6.4 0.00 0.00 0.00 60 1023.2
20200228160016 14 22 6.4 9.7 0.00 0.00 0.00 62 1022.8
20200228155016 13 45 6.4 9.7 0.00 0.00 0.00 64 1022.8
20200228154016 13 45 1.6 4.8 0.00 0.00 0.00 64 1022.8
20200228153016 13 45 3.2 6.4 0.00 0.00 0.00 63 1022.7
20200228152017 13 45 4.8 6.4 0.00 0.00 0.00 63 1022.6
20200228151016 12 22 3.2 8.0 0.00 0.00 0.00 65 1022.4
20200228150016 11 0.0 3.2 0.00 0.00 0.00 67 1022.4
20200228145016 11 22 1.6 3.2 0.00 0.00 0.00 69 1022.3
20200228144016 11 0.0 3.2 0.00 0.00 0.00 67 1022.3
20200228143017 10 22 4.8 6.4 0.00 0.00 0.00 68 1022.1
20200228142016 10 45 3.2 6.4 0.00 0.00 0.00 73 1022.0
20200228141016 10 0.0 0.0 0.00 0.00 0.00 72 1022.1
20200228140016 10 0.0 1.6 0.00 0.00 0.00 71 1021.7
20200228135016 10 45 3.2 6.4 0.00 0.00 0.00 70 1021.5
20200228134016 9 22 6.4 9.7 0.00 0.00 0.00 71 1021.0
20200228133016 8 22 8.0 11.3 0.00 0.00 0.00 75 1020.8
20200228132016 8 22 1.6 4.8 0.00 0.00 0.00 77 1021.1
20200228131016 8 22 3.2 6.4 0.00 0.00 0.00 78 1021.5
20200228130015 8 22 3.2 4.8 0.00 0.00 0.00 79 1021.1
20200228125016 8 0 3.2 4.8 0.00 0.00 0.00 79 1021.3
20200228124016 8 0 1.6 3.2 0.00 0.00 0.00 78 1021.4
20200228123016 8 0 1.6 3.2 0.00 0.00 0.00 79 1021.6
20200228122016 9 0 1.6 3.2 0.00 0.00 0.00 78 1021.6
20200228121015 10 0 1.6 3.2 0.00 0.00 0.00 78 1021.3
20200228120015 10 0 3.2 4.8 0.00 0.00 0.00 77 1021.2
20200228115016 10 247 3.2 4.8 0.00 0.00 0.00 76 1020.9
20200228114016 11 247 3.2 4.8 0.00 0.00 0.00 73 1020.9
20200228113015 11 0.0 1.6 0.00 0.00 0.00 74 1021.2
20200228112016 11 247 3.2 4.8 0.00 0.00 0.00 74 1021.1
20200228111015 10 225 3.2 4.8 0.00 0.00 0.00 76 1021.1
20200228110015 10 225 3.2 6.4 0.00 0.00 0.00 75 1021.1
20200228105015 10 202 3.2 4.8 0.00 0.00 0.00 75 1021.1
20200228104016 10 202 1.6 4.8 0.00 0.00 0.00 75 1021.1
20200228103017 10 202 1.6 1.6 0.00 0.00 0.00 73 1020.9
20200228102017 10 202 1.6 3.2 0.00 0.00 0.00 74 1020.7